sensor_id;sensor_type;location;lat;lon;timestamp;P1;durP1;ratioP1;P2;durP2;ratioP2
3433;SDS011;1730;41.932;25.548;2024-01-11T00:00:34;12.20;;;7.87;;
3433;SDS011;1730;41.932;25.548;2024-01-11T00:03:00;14.50;;;8.80;;
3433;SDS011;1730;41.932;25.548;2024-01-11T00:05:26;18.47;;;8.80;;
3433;SDS011;1730;41.932;25.548;2024-01-11T00:07:51;12.50;;;7.67;;
3433;SDS011;1730;41.932;25.548;2024-01-11T00:10:17;14.03;;;8.43;;
3433;SDS011;1730;41.932;25.548;2024-01-11T00:12:43;14.10;;;9.90;;
3433;SDS011;1730;41.932;25.548;2024-01-11T00:15:09;14.23;;;10.03;;
3433;SDS011;1730;41.932;25.548;2024-01-11T00:17:35;19.20;;;10.03;;
3433;SDS011;1730;41.932;25.548;2024-01-11T00:20:01;13.73;;;9.57;;
3433;SDS011;1730;41.932;25.548;2024-01-11T00:22:27;12.83;;;9.53;;
3433;SDS011;1730;41.932;25.548;2024-01-11T00:24:53;21.23;;;10.40;;
3433;SDS011;1730;41.932;25.548;2024-01-11T00:27:19;15.60;;;9.77;;
3433;SDS011;1730;41.932;25.548;2024-01-11T00:29:44;12.47;;;9.17;;
3433;SDS011;1730;41.932;25.548;2024-01-11T00:32:10;13.33;;;9.73;;
3433;SDS011;1730;41.932;25.548;2024-01-11T00:34:35;13.47;;;8.53;;
3433;SDS011;1730;41.932;25.548;2024-01-11T00:37:02;14.67;;;9.73;;
3433;SDS011;1730;41.932;25.548;2024-01-11T00:39:27;13.53;;;9.10;;
3433;SDS011;1730;41.932;25.548;2024-01-11T00:41:54;14.87;;;9.13;;
3433;SDS011;1730;41.932;25.548;2024-01-11T00:44:20;14.37;;;9.20;;
3433;SDS011;1730;41.932;25.548;2024-01-11T00:46:45;17.17;;;10.77;;
3433;SDS011;1730;41.932;25.548;2024-01-11T00:49:12;15.07;;;10.30;;
3433;SDS011;1730;41.932;25.548;2024-01-11T00:51:38;20.90;;;10.70;;
3433;SDS011;1730;41.932;25.548;2024-01-11T00:54:03;13.93;;;9.90;;
3433;SDS011;1730;41.932;25.548;2024-01-11T00:56:29;13.20;;;8.60;;
3433;SDS011;1730;41.932;25.548;2024-01-11T00:58:55;11.67;;;8.90;;
3433;SDS011;1730;41.932;25.548;2024-01-11T01:01:21;10.80;;;7.93;;
3433;SDS011;1730;41.932;25.548;2024-01-11T01:03:46;11.80;;;8.60;;
3433;SDS011;1730;41.932;25.548;2024-01-11T01:06:12;10.47;;;7.80;;
3433;SDS011;1730;41.932;25.548;2024-01-11T01:08:38;10.80;;;7.40;;
3433;SDS011;1730;41.932;25.548;2024-01-11T01:11:03;11.90;;;7.73;;
3433;SDS011;1730;41.932;25.548;2024-01-11T01:13:30;8.40;;;6.50;;
3433;SDS011;1730;41.932;25.548;2024-01-11T01:15:56;8.07;;;6.50;;
3433;SDS011;1730;41.932;25.548;2024-01-11T01:18:21;10.30;;;6.67;;
3433;SDS011;1730;41.932;25.548;2024-01-11T01:20:47;9.07;;;6.00;;
3433;SDS011;1730;41.932;25.548;2024-01-11T01:23:13;8.60;;;6.20;;
3433;SDS011;1730;41.932;25.548;2024-01-11T01:25:38;9.20;;;6.27;;
3433;SDS011;1730;41.932;25.548;2024-01-11T01:28:04;7.00;;;6.00;;
3433;SDS011;1730;41.932;25.548;2024-01-11T01:30:30;7.50;;;6.20;;
3433;SDS011;1730;41.932;25.548;2024-01-11T01:32:55;7.57;;;5.87;;
3433;SDS011;1730;41.932;25.548;2024-01-11T01:35:21;8.87;;;5.87;;
3433;SDS011;1730;41.932;25.548;2024-01-11T01:37:46;8.60;;;6.03;;
3433;SDS011;1730;41.932;25.548;2024-01-11T01:40:12;7.70;;;6.63;;
3433;SDS011;1730;41.932;25.548;2024-01-11T01:42:44;9.37;;;6.10;;
3433;SDS011;1730;41.932;25.548;2024-01-11T01:45:10;7.83;;;5.83;;
3433;SDS011;1730;41.932;25.548;2024-01-11T01:47:40;9.30;;;5.60;;
3433;SDS011;1730;41.932;25.548;2024-01-11T01:50:07;7.00;;;5.40;;
3433;SDS011;1730;41.932;25.548;2024-01-11T01:52:35;7.93;;;6.20;;
3433;SDS011;1730;41.932;25.548;2024-01-11T01:55:04;5.87;;;5.00;;
3433;SDS011;1730;41.932;25.548;2024-01-11T01:57:32;7.70;;;5.90;;
3433;SDS011;1730;41.932;25.548;2024-01-11T01:59:59;10.53;;;7.80;;
3433;SDS011;1730;41.932;25.548;2024-01-11T02:02:26;9.47;;;6.37;;
3433;SDS011;1730;41.932;25.548;2024-01-11T02:04:53;11.47;;;8.17;;
3433;SDS011;1730;41.932;25.548;2024-01-11T02:07:19;10.30;;;8.00;;
3433;SDS011;1730;41.932;25.548;2024-01-11T02:09:45;9.30;;;6.67;;
3433;SDS011;1730;41.932;25.548;2024-01-11T02:12:12;14.83;;;7.20;;
3433;SDS011;1730;41.932;25.548;2024-01-11T02:14:38;8.40;;;6.80;;
3433;SDS011;1730;41.932;25.548;2024-01-11T02:17:04;9.33;;;6.03;;
3433;SDS011;1730;41.932;25.548;2024-01-11T02:19:30;10.00;;;6.40;;
3433;SDS011;1730;41.932;25.548;2024-01-11T02:21:56;11.90;;;6.57;;
3433;SDS011;1730;41.932;25.548;2024-01-11T02:24:27;9.73;;;6.50;;
3433;SDS011;1730;41.932;25.548;2024-01-11T02:26:59;10.40;;;5.77;;
3433;SDS011;1730;41.932;25.548;2024-01-11T02:29:26;10.07;;;6.20;;
3433;SDS011;1730;41.932;25.548;2024-01-11T02:31:54;12.00;;;6.80;;
3433;SDS011;1730;41.932;25.548;2024-01-11T02:34:20;11.33;;;7.13;;
3433;SDS011;1730;41.932;25.548;2024-01-11T02:36:46;11.20;;;6.70;;
3433;SDS011;1730;41.932;25.548;2024-01-11T02:39:12;7.73;;;5.43;;
3433;SDS011;1730;41.932;25.548;2024-01-11T02:41:40;7.50;;;5.97;;
3433;SDS011;1730;41.932;25.548;2024-01-11T02:44:07;10.00;;;5.73;;
3433;SDS011;1730;41.932;25.548;2024-01-11T02:46:33;8.10;;;6.10;;
3433;SDS011;1730;41.932;25.548;2024-01-11T02:48:58;7.07;;;5.33;;
3433;SDS011;1730;41.932;25.548;2024-01-11T02:51:24;6.13;;;5.20;;
3433;SDS011;1730;41.932;25.548;2024-01-11T02:53:49;7.63;;;5.70;;
3433;SDS011;1730;41.932;25.548;2024-01-11T02:56:15;7.20;;;5.73;;
3433;SDS011;1730;41.932;25.548;2024-01-11T02:58:40;12.23;;;5.47;;
3433;SDS011;1730;41.932;25.548;2024-01-11T03:01:06;8.70;;;6.07;;
3433;SDS011;1730;41.932;25.548;2024-01-11T03:03:31;9.07;;;6.77;;
3433;SDS011;1730;41.932;25.548;2024-01-11T03:05:57;6.50;;;5.03;;
3433;SDS011;1730;41.932;25.548;2024-01-11T03:08:23;9.00;;;5.93;;
3433;SDS011;1730;41.932;25.548;2024-01-11T03:10:48;7.10;;;5.30;;
3433;SDS011;1730;41.932;25.548;2024-01-11T03:13:14;8.73;;;6.00;;
3433;SDS011;1730;41.932;25.548;2024-01-11T03:15:40;8.20;;;6.03;;
3433;SDS011;1730;41.932;25.548;2024-01-11T03:18:05;9.30;;;5.80;;
3433;SDS011;1730;41.932;25.548;2024-01-11T03:20:31;8.70;;;6.47;;
3433;SDS011;1730;41.932;25.548;2024-01-11T03:22:57;6.27;;;5.67;;
3433;SDS011;1730;41.932;25.548;2024-01-11T03:25:22;8.57;;;6.87;;
3433;SDS011;1730;41.932;25.548;2024-01-11T03:27:48;6.83;;;5.50;;
3433;SDS011;1730;41.932;25.548;2024-01-11T03:30:13;6.57;;;5.60;;
3433;SDS011;1730;41.932;25.548;2024-01-11T03:32:41;6.70;;;5.47;;
3433;SDS011;1730;41.932;25.548;2024-01-11T03:35:07;7.53;;;6.20;;
3433;SDS011;1730;41.932;25.548;2024-01-11T03:37:33;10.37;;;7.13;;
3433;SDS011;1730;41.932;25.548;2024-01-11T03:40:00;11.60;;;7.00;;
3433;SDS011;1730;41.932;25.548;2024-01-11T03:42:26;11.00;;;7.70;;
3433;SDS011;1730;41.932;25.548;2024-01-11T03:44:52;7.07;;;6.37;;
3433;SDS011;1730;41.932;25.548;2024-01-11T03:47:17;10.53;;;7.30;;
3433;SDS011;1730;41.932;25.548;2024-01-11T03:49:43;10.30;;;8.23;;
3433;SDS011;1730;41.932;25.548;2024-01-11T03:52:09;15.07;;;9.27;;
3433;SDS011;1730;41.932;25.548;2024-01-11T03:54:35;12.63;;;9.30;;
3433;SDS011;1730;41.932;25.548;2024-01-11T03:57:00;11.63;;;7.73;;
3433;SDS011;1730;41.932;25.548;2024-01-11T03:59:26;12.50;;;8.43;;
3433;SDS011;1730;41.932;25.548;2024-01-11T04:01:52;14.03;;;9.27;;
3433;SDS011;1730;41.932;25.548;2024-01-11T04:04:18;14.40;;;9.67;;
3433;SDS011;1730;41.932;25.548;2024-01-11T04:06:44;18.87;;;10.80;;
3433;SDS011;1730;41.932;25.548;2024-01-11T04:09:10;12.70;;;9.80;;
3433;SDS011;1730;41.932;25.548;2024-01-11T04:11:36;14.37;;;10.33;;
3433;SDS011;1730;41.932;25.548;2024-01-11T04:14:01;13.50;;;9.20;;
3433;SDS011;1730;41.932;25.548;2024-01-11T04:16:27;17.10;;;10.13;;
3433;SDS011;1730;41.932;25.548;2024-01-11T04:18:53;18.37;;;10.77;;
3433;SDS011;1730;41.932;25.548;2024-01-11T04:21:26;14.33;;;10.73;;
3433;SDS011;1730;41.932;25.548;2024-01-11T04:23:55;15.80;;;10.63;;
3433;SDS011;1730;41.932;25.548;2024-01-11T04:26:21;17.33;;;11.27;;
3433;SDS011;1730;41.932;25.548;2024-01-11T04:28:47;17.17;;;11.07;;
3433;SDS011;1730;41.932;25.548;2024-01-11T04:31:14;9.93;;;8.30;;
3433;SDS011;1730;41.932;25.548;2024-01-11T04:33:43;8.57;;;7.07;;
3433;SDS011;1730;41.932;25.548;2024-01-11T04:36:09;12.30;;;8.33;;
3433;SDS011;1730;41.932;25.548;2024-01-11T04:38:35;12.00;;;7.80;;
3433;SDS011;1730;41.932;25.548;2024-01-11T04:41:02;15.03;;;8.10;;
3433;SDS011;1730;41.932;25.548;2024-01-11T04:43:32;11.63;;;7.90;;
3433;SDS011;1730;41.932;25.548;2024-01-11T04:45:58;20.80;;;12.63;;
3433;SDS011;1730;41.932;25.548;2024-01-11T04:48:23;29.93;;;14.50;;
3433;SDS011;1730;41.932;25.548;2024-01-11T04:50:49;34.70;;;17.27;;
3433;SDS011;1730;41.932;25.548;2024-01-11T04:53:14;32.27;;;18.83;;
3433;SDS011;1730;41.932;25.548;2024-01-11T04:55:40;44.73;;;24.90;;
3433;SDS011;1730;41.932;25.548;2024-01-11T04:58:06;41.70;;;23.90;;
3433;SDS011;1730;41.932;25.548;2024-01-11T05:00:31;38.03;;;21.93;;
3433;SDS011;1730;41.932;25.548;2024-01-11T05:02:57;36.03;;;21.00;;
3433;SDS011;1730;41.932;25.548;2024-01-11T05:05:23;31.00;;;17.97;;
3433;SDS011;1730;41.932;25.548;2024-01-11T05:07:48;28.43;;;16.60;;
3433;SDS011;1730;41.932;25.548;2024-01-11T05:10:14;27.93;;;12.67;;
3433;SDS011;1730;41.932;25.548;2024-01-11T05:12:39;16.63;;;12.13;;
3433;SDS011;1730;41.932;25.548;2024-01-11T05:15:05;18.80;;;11.97;;
3433;SDS011;1730;41.932;25.548;2024-01-11T05:17:33;150.80;;;86.17;;
3433;SDS011;1730;41.932;25.548;2024-01-11T05:19:59;28.07;;;17.43;;
3433;SDS011;1730;41.932;25.548;2024-01-11T05:22:24;19.30;;;13.60;;
3433;SDS011;1730;41.932;25.548;2024-01-11T05:24:50;27.00;;;15.17;;
3433;SDS011;1730;41.932;25.548;2024-01-11T05:27:15;29.77;;;16.20;;
3433;SDS011;1730;41.932;25.548;2024-01-11T05:29:41;40.13;;;18.90;;
3433;SDS011;1730;41.932;25.548;2024-01-11T05:32:06;42.43;;;20.53;;
3433;SDS011;1730;41.932;25.548;2024-01-11T05:34:32;55.80;;;23.70;;
3433;SDS011;1730;41.932;25.548;2024-01-11T05:36:57;50.20;;;27.27;;
3433;SDS011;1730;41.932;25.548;2024-01-11T05:39:23;63.90;;;31.23;;
3433;SDS011;1730;41.932;25.548;2024-01-11T05:41:49;67.10;;;31.90;;
3433;SDS011;1730;41.932;25.548;2024-01-11T05:44:14;63.20;;;30.30;;
3433;SDS011;1730;41.932;25.548;2024-01-11T05:46:40;60.27;;;27.30;;
3433;SDS011;1730;41.932;25.548;2024-01-11T05:49:05;51.17;;;25.83;;
3433;SDS011;1730;41.932;25.548;2024-01-11T05:51:31;40.73;;;23.27;;
3433;SDS011;1730;41.932;25.548;2024-01-11T05:53:57;42.10;;;23.77;;
3433;SDS011;1730;41.932;25.548;2024-01-11T05:56:22;52.13;;;26.63;;
3433;SDS011;1730;41.932;25.548;2024-01-11T05:58:48;62.57;;;30.17;;
3433;SDS011;1730;41.932;25.548;2024-01-11T06:01:13;53.80;;;25.00;;
3433;SDS011;1730;41.932;25.548;2024-01-11T06:03:39;52.93;;;27.47;;
3433;SDS011;1730;41.932;25.548;2024-01-11T06:06:05;65.17;;;30.60;;
3433;SDS011;1730;41.932;25.548;2024-01-11T06:08:31;53.83;;;28.60;;
3433;SDS011;1730;41.932;25.548;2024-01-11T06:10:57;65.13;;;31.73;;
3433;SDS011;1730;41.932;25.548;2024-01-11T06:13:23;73.67;;;32.80;;
3433;SDS011;1730;41.932;25.548;2024-01-11T06:15:49;71.60;;;34.87;;
3433;SDS011;1730;41.932;25.548;2024-01-11T06:18:15;78.30;;;39.73;;
3433;SDS011;1730;41.932;25.548;2024-01-11T06:20:41;71.17;;;32.70;;
3433;SDS011;1730;41.932;25.548;2024-01-11T06:23:07;67.27;;;30.27;;
3433;SDS011;1730;41.932;25.548;2024-01-11T06:25:32;55.30;;;27.73;;
3433;SDS011;1730;41.932;25.548;2024-01-11T06:27:59;59.57;;;29.27;;
3433;SDS011;1730;41.932;25.548;2024-01-11T06:30:24;60.63;;;30.23;;
3433;SDS011;1730;41.932;25.548;2024-01-11T06:32:50;71.20;;;28.80;;
3433;SDS011;1730;41.932;25.548;2024-01-11T06:35:15;55.20;;;26.43;;
3433;SDS011;1730;41.932;25.548;2024-01-11T06:37:41;67.80;;;33.33;;
3433;SDS011;1730;41.932;25.548;2024-01-11T06:40:06;89.10;;;36.10;;
3433;SDS011;1730;41.932;25.548;2024-01-11T06:42:33;61.60;;;30.03;;
3433;SDS011;1730;41.932;25.548;2024-01-11T06:45:02;69.77;;;34.63;;
3433;SDS011;1730;41.932;25.548;2024-01-11T06:47:28;66.53;;;33.73;;
3433;SDS011;1730;41.932;25.548;2024-01-11T06:49:54;82.03;;;33.73;;
3433;SDS011;1730;41.932;25.548;2024-01-11T06:52:19;66.70;;;30.70;;
3433;SDS011;1730;41.932;25.548;2024-01-11T06:54:45;65.03;;;29.50;;
3433;SDS011;1730;41.932;25.548;2024-01-11T06:57:10;54.60;;;26.77;;
3433;SDS011;1730;41.932;25.548;2024-01-11T06:59:36;57.80;;;28.90;;
3433;SDS011;1730;41.932;25.548;2024-01-11T07:02:02;44.00;;;24.50;;
3433;SDS011;1730;41.932;25.548;2024-01-11T07:04:29;46.90;;;23.63;;
3433;SDS011;1730;41.932;25.548;2024-01-11T07:06:55;46.90;;;24.10;;
3433;SDS011;1730;41.932;25.548;2024-01-11T07:09:20;42.83;;;24.70;;
3433;SDS011;1730;41.932;25.548;2024-01-11T07:11:46;47.23;;;26.63;;
3433;SDS011;1730;41.932;25.548;2024-01-11T07:14:11;60.50;;;29.30;;
3433;SDS011;1730;41.932;25.548;2024-01-11T07:16:37;59.97;;;32.10;;
3433;SDS011;1730;41.932;25.548;2024-01-11T07:19:02;62.13;;;34.67;;
3433;SDS011;1730;41.932;25.548;2024-01-11T07:21:29;67.70;;;37.80;;
3433;SDS011;1730;41.932;25.548;2024-01-11T07:23:56;60.97;;;33.07;;
3433;SDS011;1730;41.932;25.548;2024-01-11T07:26:23;58.97;;;34.87;;
3433;SDS011;1730;41.932;25.548;2024-01-11T07:28:49;68.77;;;38.57;;
3433;SDS011;1730;41.932;25.548;2024-01-11T07:31:15;95.67;;;47.13;;
3433;SDS011;1730;41.932;25.548;2024-01-11T07:33:41;87.07;;;49.83;;
3433;SDS011;1730;41.932;25.548;2024-01-11T07:36:06;76.20;;;42.53;;
3433;SDS011;1730;41.932;25.548;2024-01-11T07:38:32;71.60;;;39.87;;
3433;SDS011;1730;41.932;25.548;2024-01-11T07:40:58;76.70;;;40.90;;
3433;SDS011;1730;41.932;25.548;2024-01-11T07:43:23;92.63;;;48.53;;
3433;SDS011;1730;41.932;25.548;2024-01-11T07:45:49;71.20;;;40.53;;
3433;SDS011;1730;41.932;25.548;2024-01-11T07:48:15;91.70;;;44.47;;
3433;SDS011;1730;41.932;25.548;2024-01-11T07:50:40;117.10;;;60.47;;
3433;SDS011;1730;41.932;25.548;2024-01-11T07:53:06;86.57;;;47.50;;
3433;SDS011;1730;41.932;25.548;2024-01-11T07:55:32;97.23;;;48.67;;
3433;SDS011;1730;41.932;25.548;2024-01-11T07:57:57;112.27;;;57.50;;
3433;SDS011;1730;41.932;25.548;2024-01-11T08:00:23;101.73;;;53.30;;
3433;SDS011;1730;41.932;25.548;2024-01-11T08:02:49;92.20;;;46.63;;
3433;SDS011;1730;41.932;25.548;2024-01-11T08:05:19;89.73;;;44.67;;
3433;SDS011;1730;41.932;25.548;2024-01-11T08:07:45;64.37;;;36.10;;
3433;SDS011;1730;41.932;25.548;2024-01-11T08:10:10;53.87;;;31.50;;
3433;SDS011;1730;41.932;25.548;2024-01-11T08:12:36;45.27;;;25.83;;
3433;SDS011;1730;41.932;25.548;2024-01-11T08:15:02;45.60;;;29.57;;
3433;SDS011;1730;41.932;25.548;2024-01-11T08:17:28;46.50;;;27.73;;
3433;SDS011;1730;41.932;25.548;2024-01-11T08:19:53;41.40;;;25.83;;
3433;SDS011;1730;41.932;25.548;2024-01-11T08:22:21;44.90;;;27.13;;
3433;SDS011;1730;41.932;25.548;2024-01-11T08:24:48;59.33;;;38.50;;
3433;SDS011;1730;41.932;25.548;2024-01-11T08:27:14;47.97;;;28.97;;
3433;SDS011;1730;41.932;25.548;2024-01-11T08:29:42;34.97;;;22.50;;
3433;SDS011;1730;41.932;25.548;2024-01-11T08:32:08;28.47;;;18.57;;
3433;SDS011;1730;41.932;25.548;2024-01-11T08:34:34;28.37;;;18.10;;
3433;SDS011;1730;41.932;25.548;2024-01-11T08:36:59;26.10;;;15.90;;
3433;SDS011;1730;41.932;25.548;2024-01-11T08:39:25;35.33;;;21.57;;
3433;SDS011;1730;41.932;25.548;2024-01-11T08:41:51;28.30;;;18.90;;
3433;SDS011;1730;41.932;25.548;2024-01-11T08:44:18;23.50;;;16.23;;
3433;SDS011;1730;41.932;25.548;2024-01-11T08:46:43;19.10;;;12.67;;
3433;SDS011;1730;41.932;25.548;2024-01-11T08:49:09;19.93;;;13.13;;
3433;SDS011;1730;41.932;25.548;2024-01-11T08:51:35;18.63;;;13.03;;
3433;SDS011;1730;41.932;25.548;2024-01-11T08:54:00;17.07;;;12.47;;
3433;SDS011;1730;41.932;25.548;2024-01-11T08:56:26;15.73;;;11.43;;
3433;SDS011;1730;41.932;25.548;2024-01-11T08:58:53;17.30;;;11.50;;
3433;SDS011;1730;41.932;25.548;2024-01-11T09:01:18;19.57;;;12.60;;
3433;SDS011;1730;41.932;25.548;2024-01-11T09:03:44;18.43;;;12.57;;
3433;SDS011;1730;41.932;25.548;2024-01-11T09:06:10;17.33;;;12.53;;
3433;SDS011;1730;41.932;25.548;2024-01-11T09:08:36;17.50;;;12.40;;
3433;SDS011;1730;41.932;25.548;2024-01-11T09:11:02;14.33;;;10.80;;
3433;SDS011;1730;41.932;25.548;2024-01-11T09:13:28;14.80;;;10.70;;
3433;SDS011;1730;41.932;25.548;2024-01-11T09:15:54;14.50;;;9.30;;
3433;SDS011;1730;41.932;25.548;2024-01-11T09:18:20;13.80;;;10.07;;
3433;SDS011;1730;41.932;25.548;2024-01-11T09:20:47;12.47;;;9.87;;
3433;SDS011;1730;41.932;25.548;2024-01-11T09:23:13;14.57;;;10.50;;
3433;SDS011;1730;41.932;25.548;2024-01-11T09:25:39;21.90;;;12.30;;
3433;SDS011;1730;41.932;25.548;2024-01-11T09:28:05;50.60;;;21.23;;
3433;SDS011;1730;41.932;25.548;2024-01-11T09:30:31;18.00;;;13.03;;
3433;SDS011;1730;41.932;25.548;2024-01-11T09:32:56;23.93;;;15.10;;
3433;SDS011;1730;41.932;25.548;2024-01-11T09:35:23;18.37;;;12.60;;
3433;SDS011;1730;41.932;25.548;2024-01-11T09:37:49;11.90;;;8.80;;
3433;SDS011;1730;41.932;25.548;2024-01-11T09:40:17;15.03;;;9.77;;
3433;SDS011;1730;41.932;25.548;2024-01-11T09:42:43;12.90;;;9.47;;
3433;SDS011;1730;41.932;25.548;2024-01-11T09:45:17;20.03;;;13.30;;
3433;SDS011;1730;41.932;25.548;2024-01-11T09:47:43;13.77;;;10.57;;
3433;SDS011;1730;41.932;25.548;2024-01-11T09:50:11;25.57;;;15.87;;
3433;SDS011;1730;41.932;25.548;2024-01-11T09:52:44;17.40;;;14.10;;
3433;SDS011;1730;41.932;25.548;2024-01-11T09:55:12;25.37;;;18.40;;
3433;SDS011;1730;41.932;25.548;2024-01-11T09:57:40;23.20;;;15.97;;
3433;SDS011;1730;41.932;25.548;2024-01-11T10:00:09;26.67;;;16.77;;
3433;SDS011;1730;41.932;25.548;2024-01-11T10:02:38;22.40;;;15.80;;
3433;SDS011;1730;41.932;25.548;2024-01-11T10:05:04;25.87;;;18.07;;
3433;SDS011;1730;41.932;25.548;2024-01-11T10:07:31;36.30;;;20.10;;
3433;SDS011;1730;41.932;25.548;2024-01-11T10:09:59;22.00;;;16.00;;
3433;SDS011;1730;41.932;25.548;2024-01-11T10:12:25;18.67;;;13.20;;
3433;SDS011;1730;41.932;25.548;2024-01-11T10:14:52;16.83;;;13.30;;
3433;SDS011;1730;41.932;25.548;2024-01-11T10:17:18;17.83;;;14.10;;
3433;SDS011;1730;41.932;25.548;2024-01-11T10:19:43;20.67;;;15.60;;
3433;SDS011;1730;41.932;25.548;2024-01-11T10:22:09;26.07;;;15.03;;
3433;SDS011;1730;41.932;25.548;2024-01-11T10:24:40;36.50;;;21.50;;
3433;SDS011;1730;41.932;25.548;2024-01-11T10:27:08;15.90;;;13.07;;
3433;SDS011;1730;41.932;25.548;2024-01-11T10:29:34;18.10;;;11.77;;
3433;SDS011;1730;41.932;25.548;2024-01-11T10:32:05;21.80;;;12.53;;
3433;SDS011;1730;41.932;25.548;2024-01-11T10:34:38;16.57;;;11.23;;
3433;SDS011;1730;41.932;25.548;2024-01-11T10:37:06;32.53;;;11.60;;
3433;SDS011;1730;41.932;25.548;2024-01-11T10:39:35;13.50;;;10.60;;
3433;SDS011;1730;41.932;25.548;2024-01-11T10:42:05;11.10;;;9.10;;
3433;SDS011;1730;41.932;25.548;2024-01-11T10:44:33;12.90;;;10.73;;
3433;SDS011;1730;41.932;25.548;2024-01-11T10:47:00;14.43;;;9.20;;
3433;SDS011;1730;41.932;25.548;2024-01-11T10:49:28;32.37;;;21.77;;
3433;SDS011;1730;41.932;25.548;2024-01-11T10:51:59;16.43;;;13.23;;
3433;SDS011;1730;41.932;25.548;2024-01-11T10:54:26;9.30;;;8.30;;
3433;SDS011;1730;41.932;25.548;2024-01-11T10:56:53;10.50;;;7.40;;
3433;SDS011;1730;41.932;25.548;2024-01-11T10:59:21;8.20;;;7.40;;
3433;SDS011;1730;41.932;25.548;2024-01-11T11:01:54;11.47;;;9.03;;
3433;SDS011;1730;41.932;25.548;2024-01-11T11:04:22;9.03;;;7.73;;
3433;SDS011;1730;41.932;25.548;2024-01-11T11:06:54;8.37;;;7.50;;
3433;SDS011;1730;41.932;25.548;2024-01-11T11:09:24;9.93;;;8.30;;
3433;SDS011;1730;41.932;25.548;2024-01-11T11:11:50;11.80;;;9.50;;
3433;SDS011;1730;41.932;25.548;2024-01-11T11:14:20;9.90;;;8.90;;
3433;SDS011;1730;41.932;25.548;2024-01-11T11:16:47;19.97;;;9.87;;
3433;SDS011;1730;41.932;25.548;2024-01-11T11:19:13;15.73;;;9.00;;
3433;SDS011;1730;41.932;25.548;2024-01-11T11:21:43;14.67;;;11.17;;
3433;SDS011;1730;41.932;25.548;2024-01-11T11:24:10;12.27;;;9.73;;
3433;SDS011;1730;41.932;25.548;2024-01-11T11:26:38;13.17;;;10.70;;
3433;SDS011;1730;41.932;25.548;2024-01-11T11:29:04;18.37;;;13.50;;
3433;SDS011;1730;41.932;25.548;2024-01-11T11:31:44;25.00;;;15.90;;
3433;SDS011;1730;41.932;25.548;2024-01-11T11:34:37;10.77;;;9.53;;
3433;SDS011;1730;41.932;25.548;2024-01-11T11:37:05;22.30;;;11.60;;
3433;SDS011;1730;41.932;25.548;2024-01-11T11:39:31;15.03;;;10.40;;
3433;SDS011;1730;41.932;25.548;2024-01-11T11:41:57;16.83;;;11.40;;
3433;SDS011;1730;41.932;25.548;2024-01-11T11:44:25;12.80;;;10.00;;
3433;SDS011;1730;41.932;25.548;2024-01-11T11:46:51;28.73;;;16.80;;
3433;SDS011;1730;41.932;25.548;2024-01-11T11:49:16;18.37;;;13.40;;
3433;SDS011;1730;41.932;25.548;2024-01-11T11:51:43;32.23;;;19.20;;
3433;SDS011;1730;41.932;25.548;2024-01-11T11:54:08;13.93;;;10.70;;
3433;SDS011;1730;41.932;25.548;2024-01-11T11:56:35;20.70;;;15.37;;
3433;SDS011;1730;41.932;25.548;2024-01-11T11:59:02;25.90;;;16.90;;
3433;SDS011;1730;41.932;25.548;2024-01-11T12:01:28;9.10;;;8.10;;
3433;SDS011;1730;41.932;25.548;2024-01-11T12:03:56;7.70;;;5.97;;
3433;SDS011;1730;41.932;25.548;2024-01-11T12:06:22;8.37;;;7.47;;
3433;SDS011;1730;41.932;25.548;2024-01-11T12:08:49;8.50;;;6.80;;
3433;SDS011;1730;41.932;25.548;2024-01-11T12:11:18;8.20;;;7.10;;
3433;SDS011;1730;41.932;25.548;2024-01-11T12:13:47;10.33;;;8.20;;
3433;SDS011;1730;41.932;25.548;2024-01-11T12:16:13;10.10;;;7.90;;
3433;SDS011;1730;41.932;25.548;2024-01-11T12:18:39;12.90;;;9.43;;
3433;SDS011;1730;41.932;25.548;2024-01-11T12:21:06;11.20;;;5.67;;
3433;SDS011;1730;41.932;25.548;2024-01-11T12:23:33;6.37;;;5.70;;
3433;SDS011;1730;41.932;25.548;2024-01-11T12:26:03;5.40;;;4.90;;
3433;SDS011;1730;41.932;25.548;2024-01-11T12:28:33;5.73;;;5.23;;
3433;SDS011;1730;41.932;25.548;2024-01-11T12:30:59;5.27;;;4.87;;
3433;SDS011;1730;41.932;25.548;2024-01-11T12:33:25;8.97;;;8.10;;
3433;SDS011;1730;41.932;25.548;2024-01-11T12:35:52;8.50;;;6.27;;
3433;SDS011;1730;41.932;25.548;2024-01-11T12:38:18;12.03;;;6.90;;
3433;SDS011;1730;41.932;25.548;2024-01-11T12:40:43;6.73;;;5.80;;
3433;SDS011;1730;41.932;25.548;2024-01-11T12:43:11;14.07;;;5.63;;
3433;SDS011;1730;41.932;25.548;2024-01-11T12:45:37;7.20;;;4.27;;
3433;SDS011;1730;41.932;25.548;2024-01-11T12:48:06;3.70;;;3.40;;
3433;SDS011;1730;41.932;25.548;2024-01-11T12:50:35;17.10;;;4.30;;
3433;SDS011;1730;41.932;25.548;2024-01-11T12:53:04;6.30;;;5.23;;
3433;SDS011;1730;41.932;25.548;2024-01-11T12:55:35;4.13;;;3.83;;
3433;SDS011;1730;41.932;25.548;2024-01-11T12:58:04;18.37;;;12.73;;
3433;SDS011;1730;41.932;25.548;2024-01-11T13:00:36;7.47;;;3.70;;
3433;SDS011;1730;41.932;25.548;2024-01-11T13:03:02;7.83;;;4.67;;
3433;SDS011;1730;41.932;25.548;2024-01-11T13:05:29;4.10;;;3.40;;
3433;SDS011;1730;41.932;25.548;2024-01-11T13:08:02;5.20;;;4.33;;
3433;SDS011;1730;41.932;25.548;2024-01-11T13:10:29;4.40;;;3.53;;
3433;SDS011;1730;41.932;25.548;2024-01-11T13:12:55;3.23;;;2.97;;
3433;SDS011;1730;41.932;25.548;2024-01-11T13:15:21;6.70;;;5.43;;
3433;SDS011;1730;41.932;25.548;2024-01-11T13:17:47;3.83;;;3.47;;
3433;SDS011;1730;41.932;25.548;2024-01-11T13:20:13;4.30;;;3.90;;
3433;SDS011;1730;41.932;25.548;2024-01-11T13:22:39;4.30;;;3.90;;
3433;SDS011;1730;41.932;25.548;2024-01-11T13:25:05;6.40;;;5.90;;
3433;SDS011;1730;41.932;25.548;2024-01-11T13:27:32;3.63;;;3.33;;
3433;SDS011;1730;41.932;25.548;2024-01-11T13:29:57;5.60;;;5.10;;
3433;SDS011;1730;41.932;25.548;2024-01-11T13:32:23;4.30;;;3.60;;
3433;SDS011;1730;41.932;25.548;2024-01-11T13:34:49;4.20;;;3.17;;
3433;SDS011;1730;41.932;25.548;2024-01-11T13:37:18;3.97;;;3.67;;
3433;SDS011;1730;41.932;25.548;2024-01-11T13:39:45;3.93;;;3.53;;
3433;SDS011;1730;41.932;25.548;2024-01-11T13:42:10;3.80;;;3.50;;
3433;SDS011;1730;41.932;25.548;2024-01-11T13:44:36;7.53;;;4.00;;
3433;SDS011;1730;41.932;25.548;2024-01-11T13:47:02;3.40;;;3.10;;
3433;SDS011;1730;41.932;25.548;2024-01-11T13:49:28;3.90;;;3.50;;
3433;SDS011;1730;41.932;25.548;2024-01-11T13:51:53;7.00;;;4.80;;
3433;SDS011;1730;41.932;25.548;2024-01-11T13:54:19;14.40;;;4.33;;
3433;SDS011;1730;41.932;25.548;2024-01-11T13:56:46;12.37;;;5.10;;
3433;SDS011;1730;41.932;25.548;2024-01-11T13:59:12;9.00;;;7.47;;
3433;SDS011;1730;41.932;25.548;2024-01-11T14:01:37;6.07;;;5.47;;
3433;SDS011;1730;41.932;25.548;2024-01-11T14:04:03;7.00;;;6.13;;
3433;SDS011;1730;41.932;25.548;2024-01-11T14:06:28;14.30;;;5.70;;
3433;SDS011;1730;41.932;25.548;2024-01-11T14:08:54;9.27;;;6.33;;
3433;SDS011;1730;41.932;25.548;2024-01-11T14:11:21;12.00;;;7.93;;
3433;SDS011;1730;41.932;25.548;2024-01-11T14:13:47;20.23;;;10.70;;
3433;SDS011;1730;41.932;25.548;2024-01-11T14:16:13;19.00;;;13.77;;
3433;SDS011;1730;41.932;25.548;2024-01-11T14:18:41;20.20;;;14.60;;
3433;SDS011;1730;41.932;25.548;2024-01-11T14:21:06;20.50;;;13.47;;
3433;SDS011;1730;41.932;25.548;2024-01-11T14:23:32;19.03;;;9.93;;
3433;SDS011;1730;41.932;25.548;2024-01-11T14:25:57;20.30;;;11.97;;
3433;SDS011;1730;41.932;25.548;2024-01-11T14:28:23;18.70;;;13.73;;
3433;SDS011;1730;41.932;25.548;2024-01-11T14:30:50;44.93;;;27.03;;
3433;SDS011;1730;41.932;25.548;2024-01-11T14:33:17;26.70;;;18.77;;
3433;SDS011;1730;41.932;25.548;2024-01-11T14:35:45;32.43;;;24.10;;
3433;SDS011;1730;41.932;25.548;2024-01-11T14:38:10;30.23;;;19.10;;